Terminal Aerodrome Forecast
Issued by NWS

Home | Current Version | Previous Version | Text Only | Print | Product List | Glossary On
Versions: 1 2 3 4 5 6 7 8 9 10 11 12 13 14 15 16 17 18
000
FTUS44 KMAF 201100
TAFFST
TAF
KFST 201120Z 2012/2112 18008KT P6SM FEW017 BKN025
      TEMPO 2012/2014 BKN015
     FM201400 18007KT P6SM SCT150
     FM210600 18013KT P6SM FEW150=

USA.gov is the U.S. government's official web portal to all federal, state and local government web resources and services.